sensor_id;sensor_type;location;lat;lon;timestamp;P1;durP1;ratioP1;P2;durP2;ratioP2
44704;SDS011;30431;48.520;9.046;2023-09-07T14:58:20;6.68;;;3.75;;
44704;SDS011;30431;48.520;9.046;2023-09-07T15:03:14;7.28;;;3.72;;
44704;SDS011;30431;48.520;9.046;2023-09-07T15:05:43;5.43;;;3.30;;
44704;SDS011;30431;48.520;9.046;2023-09-07T15:08:12;5.75;;;3.72;;
44704;SDS011;30431;48.520;9.046;2023-09-07T15:10:41;3.35;;;2.90;;
44704;SDS011;30431;48.520;9.046;2023-09-07T15:13:11;6.53;;;3.47;;
44704;SDS011;30431;48.520;9.046;2023-09-07T15:15:38;7.32;;;4.05;;
44704;SDS011;30431;48.520;9.046;2023-09-07T15:18:06;6.30;;;3.63;;
44704;SDS011;30431;48.520;9.046;2023-09-07T15:20:34;4.88;;;3.40;;
44704;SDS011;30431;48.520;9.046;2023-09-07T15:23:02;4.97;;;3.60;;
44704;SDS011;30431;48.520;9.046;2023-09-07T15:25:34;7.47;;;3.45;;
44704;SDS011;30431;48.520;9.046;2023-09-07T15:28:02;7.25;;;3.70;;
44704;SDS011;30431;48.520;9.046;2023-09-07T15:30:29;7.20;;;3.83;;
44704;SDS011;30431;48.520;9.046;2023-09-07T15:32:58;5.00;;;3.80;;
44704;SDS011;30431;48.520;9.046;2023-09-07T15:35:25;5.97;;;3.80;;
44704;SDS011;30431;48.520;9.046;2023-09-07T15:37:54;6.53;;;3.70;;
44704;SDS011;30431;48.520;9.046;2023-09-07T15:42:50;4.50;;;3.60;;
44704;SDS011;30431;48.520;9.046;2023-09-07T15:47:44;7.93;;;3.58;;
44704;SDS011;30431;48.520;9.046;2023-09-07T15:50:14;4.55;;;3.50;;
44704;SDS011;30431;48.520;9.046;2023-09-07T15:52:47;5.82;;;3.90;;
44704;SDS011;30431;48.520;9.046;2023-09-07T15:55:15;5.93;;;3.58;;
44704;SDS011;30431;48.520;9.046;2023-09-07T15:57:45;5.15;;;3.45;;
44704;SDS011;30431;48.520;9.046;2023-09-07T16:00:15;7.82;;;3.75;;
44704;SDS011;30431;48.520;9.046;2023-09-07T16:02:43;4.88;;;3.72;;
44704;SDS011;30431;48.520;9.046;2023-09-07T16:05:13;6.75;;;3.80;;
44704;SDS011;30431;48.520;9.046;2023-09-07T16:07:40;5.53;;;3.67;;
44704;SDS011;30431;48.520;9.046;2023-09-07T16:10:10;4.53;;;3.65;;
44704;SDS011;30431;48.520;9.046;2023-09-07T16:12:38;7.07;;;3.35;;
44704;SDS011;30431;48.520;9.046;2023-09-07T16:17:32;4.95;;;3.63;;
44704;SDS011;30431;48.520;9.046;2023-09-07T16:20:01;8.45;;;3.88;;
44704;SDS011;30431;48.520;9.046;2023-09-07T16:22:28;4.50;;;3.53;;
44704;SDS011;30431;48.520;9.046;2023-09-07T16:27:26;4.50;;;3.40;;
44704;SDS011;30431;48.520;9.046;2023-09-07T16:32:23;5.82;;;3.63;;
44704;SDS011;30431;48.520;9.046;2023-09-07T16:37:17;5.38;;;3.70;;
44704;SDS011;30431;48.520;9.046;2023-09-07T16:39:55;5.53;;;3.75;;
44704;SDS011;30431;48.520;9.046;2023-09-07T16:42:22;6.55;;;3.75;;
44704;SDS011;30431;48.520;9.046;2023-09-07T16:47:22;5.00;;;3.78;;
44704;SDS011;30431;48.520;9.046;2023-09-07T16:49:51;6.35;;;3.95;;
44704;SDS011;30431;48.520;9.046;2023-09-07T16:52:18;6.15;;;3.83;;
44704;SDS011;30431;48.520;9.046;2023-09-07T16:54:45;6.68;;;3.60;;
44704;SDS011;30431;48.520;9.046;2023-09-07T16:59:41;4.72;;;3.85;;
44704;SDS011;30431;48.520;9.046;2023-09-07T17:02:11;5.15;;;3.47;;
44704;SDS011;30431;48.520;9.046;2023-09-07T17:04:41;6.45;;;3.63;;
44704;SDS011;30431;48.520;9.046;2023-09-07T17:07:12;5.63;;;3.70;;
44704;SDS011;30431;48.520;9.046;2023-09-07T17:09:41;11.38;;;4.35;;
44704;SDS011;30431;48.520;9.046;2023-09-07T17:14:35;7.43;;;3.55;;
44704;SDS011;30431;48.520;9.046;2023-09-07T17:17:02;7.22;;;4.03;;
44704;SDS011;30431;48.520;9.046;2023-09-07T17:19:30;6.00;;;3.70;;
44704;SDS011;30431;48.520;9.046;2023-09-07T17:24:24;6.55;;;3.80;;
44704;SDS011;30431;48.520;9.046;2023-09-07T17:26:51;10.55;;;4.38;;
44704;SDS011;30431;48.520;9.046;2023-09-07T17:29:18;5.38;;;3.95;;
44704;SDS011;30431;48.520;9.046;2023-09-07T17:34:13;7.47;;;4.30;;
44704;SDS011;30431;48.520;9.046;2023-09-07T17:36:40;7.07;;;4.28;;
44704;SDS011;30431;48.520;9.046;2023-09-07T17:39:12;6.57;;;3.65;;
44704;SDS011;30431;48.520;9.046;2023-09-07T17:41:39;5.70;;;3.70;;
44704;SDS011;30431;48.520;9.046;2023-09-07T17:44:06;6.07;;;4.50;;
44704;SDS011;30431;48.520;9.046;2023-09-07T17:46:41;5.93;;;3.83;;
44704;SDS011;30431;48.520;9.046;2023-09-07T17:49:13;6.65;;;3.80;;
44704;SDS011;30431;48.520;9.046;2023-09-07T17:51:42;8.30;;;4.00;;
44704;SDS011;30431;48.520;9.046;2023-09-07T17:54:09;4.95;;;4.00;;
44704;SDS011;30431;48.520;9.046;2023-09-07T17:59:05;6.55;;;4.22;;
44704;SDS011;30431;48.520;9.046;2023-09-07T18:01:36;5.80;;;4.10;;
44704;SDS011;30431;48.520;9.046;2023-09-07T18:04:04;5.70;;;4.30;;
44704;SDS011;30431;48.520;9.046;2023-09-07T18:06:33;7.68;;;4.35;;
44704;SDS011;30431;48.520;9.046;2023-09-07T18:09:00;6.65;;;4.03;;
44704;SDS011;30431;48.520;9.046;2023-09-07T18:11:33;7.68;;;4.40;;
44704;SDS011;30431;48.520;9.046;2023-09-07T18:14:02;5.70;;;4.10;;
44704;SDS011;30431;48.520;9.046;2023-09-07T18:16:39;10.63;;;4.43;;
44704;SDS011;30431;48.520;9.046;2023-09-07T18:19:07;6.22;;;4.18;;
44704;SDS011;30431;48.520;9.046;2023-09-07T18:21:36;7.85;;;4.20;;
44704;SDS011;30431;48.520;9.046;2023-09-07T18:24:04;7.30;;;4.38;;
44704;SDS011;30431;48.520;9.046;2023-09-07T18:26:33;7.97;;;4.43;;
44704;SDS011;30431;48.520;9.046;2023-09-07T18:29:03;7.03;;;4.65;;
44704;SDS011;30431;48.520;9.046;2023-09-07T18:31:34;7.60;;;4.75;;
44704;SDS011;30431;48.520;9.046;2023-09-07T18:34:03;5.80;;;4.40;;
44704;SDS011;30431;48.520;9.046;2023-09-07T18:36:33;6.97;;;4.32;;
44704;SDS011;30431;48.520;9.046;2023-09-07T18:39:02;9.55;;;5.18;;
44704;SDS011;30431;48.520;9.046;2023-09-07T18:41:32;6.45;;;4.43;;
44704;SDS011;30431;48.520;9.046;2023-09-07T18:46:31;8.07;;;5.13;;
44704;SDS011;30431;48.520;9.046;2023-09-07T18:51:25;11.25;;;8.60;;
44704;SDS011;30431;48.520;9.046;2023-09-07T18:53:54;7.35;;;4.93;;
44704;SDS011;30431;48.520;9.046;2023-09-07T18:56:21;9.77;;;7.43;;
44704;SDS011;30431;48.520;9.046;2023-09-07T18:58:48;9.68;;;5.30;;
44704;SDS011;30431;48.520;9.046;2023-09-07T19:01:17;9.55;;;7.30;;
44704;SDS011;30431;48.520;9.046;2023-09-07T19:03:49;12.65;;;6.47;;
44704;SDS011;30431;48.520;9.046;2023-09-07T19:06:18;8.10;;;5.70;;
44704;SDS011;30431;48.520;9.046;2023-09-07T19:08:50;9.90;;;5.97;;
44704;SDS011;30431;48.520;9.046;2023-09-07T19:11:19;8.00;;;5.82;;
44704;SDS011;30431;48.520;9.046;2023-09-07T19:13:46;10.10;;;6.10;;
44704;SDS011;30431;48.520;9.046;2023-09-07T19:18:40;11.57;;;6.30;;
44704;SDS011;30431;48.520;9.046;2023-09-07T19:21:10;6.93;;;4.97;;
44704;SDS011;30431;48.520;9.046;2023-09-07T19:23:50;6.82;;;5.10;;
44704;SDS011;30431;48.520;9.046;2023-09-07T19:29:07;7.45;;;5.15;;
44704;SDS011;30431;48.520;9.046;2023-09-07T19:31:35;7.70;;;5.60;;
44704;SDS011;30431;48.520;9.046;2023-09-07T19:34:03;12.43;;;6.13;;
44704;SDS011;30431;48.520;9.046;2023-09-07T19:36:34;6.38;;;5.47;;
44704;SDS011;30431;48.520;9.046;2023-09-07T19:39:05;10.50;;;7.15;;
44704;SDS011;30431;48.520;9.046;2023-09-07T19:41:37;8.00;;;5.90;;
44704;SDS011;30431;48.520;9.046;2023-09-07T19:44:05;7.13;;;5.38;;
44704;SDS011;30431;48.520;9.046;2023-09-07T19:46:33;12.18;;;8.38;;
44704;SDS011;30431;48.520;9.046;2023-09-07T19:49:04;13.93;;;9.15;;
44704;SDS011;30431;48.520;9.046;2023-09-07T19:51:34;15.45;;;12.52;;
44704;SDS011;30431;48.520;9.046;2023-09-07T19:54:01;7.50;;;5.45;;
44704;SDS011;30431;48.520;9.046;2023-09-07T19:56:29;12.23;;;5.65;;
44704;SDS011;30431;48.520;9.046;2023-09-07T19:58:59;7.57;;;5.68;;
44704;SDS011;30431;48.520;9.046;2023-09-07T20:01:28;10.75;;;6.30;;
44704;SDS011;30431;48.520;9.046;2023-09-07T20:04:21;10.80;;;5.50;;
44704;SDS011;30431;48.520;9.046;2023-09-07T20:07:12;10.07;;;5.68;;
44704;SDS011;30431;48.520;9.046;2023-09-07T20:09:40;9.15;;;5.88;;
44704;SDS011;30431;48.520;9.046;2023-09-07T20:15:52;13.70;;;6.75;;
44704;SDS011;30431;48.520;9.046;2023-09-07T20:23:29;24.13;;;9.43;;
44704;SDS011;30431;48.520;9.046;2023-09-07T20:31:07;18.13;;;6.47;;
44704;SDS011;30431;48.520;9.046;2023-09-07T20:34:59;12.30;;;7.35;;
44704;SDS011;30431;48.520;9.046;2023-09-07T20:42:40;8.30;;;6.05;;
44704;SDS011;30431;48.520;9.046;2023-09-07T20:46:04;8.30;;;5.57;;
44704;SDS011;30431;48.520;9.046;2023-09-07T20:48:33;10.10;;;5.70;;
44704;SDS011;30431;48.520;9.046;2023-09-07T20:51:01;8.50;;;5.50;;
44704;SDS011;30431;48.520;9.046;2023-09-07T20:53:35;21.42;;;11.15;;
44704;SDS011;30431;48.520;9.046;2023-09-07T20:56:04;9.00;;;6.90;;
44704;SDS011;30431;48.520;9.046;2023-09-07T20:58:31;12.35;;;5.93;;
44704;SDS011;30431;48.520;9.046;2023-09-07T21:04:00;8.63;;;6.28;;
44704;SDS011;30431;48.520;9.046;2023-09-07T21:08:55;9.23;;;7.07;;
44704;SDS011;30431;48.520;9.046;2023-09-07T21:11:22;10.20;;;5.75;;
44704;SDS011;30431;48.520;9.046;2023-09-07T21:13:49;8.07;;;5.93;;
44704;SDS011;30431;48.520;9.046;2023-09-07T21:16:19;7.57;;;5.65;;
44704;SDS011;30431;48.520;9.046;2023-09-07T21:18:46;9.93;;;6.22;;
44704;SDS011;30431;48.520;9.046;2023-09-07T21:21:14;8.93;;;5.70;;
44704;SDS011;30431;48.520;9.046;2023-09-07T21:28:36;12.55;;;6.95;;
44704;SDS011;30431;48.520;9.046;2023-09-07T21:31:03;10.50;;;7.07;;
44704;SDS011;30431;48.520;9.046;2023-09-07T21:33:32;11.38;;;6.90;;
44704;SDS011;30431;48.520;9.046;2023-09-07T21:36:02;11.77;;;6.90;;
44704;SDS011;30431;48.520;9.046;2023-09-07T21:38:33;14.63;;;9.50;;
44704;SDS011;30431;48.520;9.046;2023-09-07T21:41:00;16.52;;;9.05;;
44704;SDS011;30431;48.520;9.046;2023-09-07T21:43:27;20.45;;;10.05;;
44704;SDS011;30431;48.520;9.046;2023-09-07T21:45:55;9.82;;;8.10;;
44704;SDS011;30431;48.520;9.046;2023-09-07T21:50:50;10.35;;;6.40;;
44704;SDS011;30431;48.520;9.046;2023-09-07T21:53:18;7.22;;;6.53;;
44704;SDS011;30431;48.520;9.046;2023-09-07T21:55:48;11.63;;;8.60;;
44704;SDS011;30431;48.520;9.046;2023-09-07T21:58:15;12.52;;;7.68;;
44704;SDS011;30431;48.520;9.046;2023-09-07T22:03:12;8.95;;;7.25;;
44704;SDS011;30431;48.520;9.046;2023-09-07T22:05:41;16.27;;;8.57;;
44704;SDS011;30431;48.520;9.046;2023-09-07T22:08:09;8.68;;;7.13;;
44704;SDS011;30431;48.520;9.046;2023-09-07T22:10:38;13.98;;;7.38;;
44704;SDS011;30431;48.520;9.046;2023-09-07T22:13:06;10.45;;;7.65;;
44704;SDS011;30431;48.520;9.046;2023-09-07T22:15:37;11.48;;;7.38;;
44704;SDS011;30431;48.520;9.046;2023-09-07T22:18:04;11.00;;;7.20;;
44704;SDS011;30431;48.520;9.046;2023-09-07T22:20:34;9.55;;;6.80;;
44704;SDS011;30431;48.520;9.046;2023-09-07T22:23:03;9.07;;;6.90;;
44704;SDS011;30431;48.520;9.046;2023-09-07T22:25:33;9.85;;;7.30;;
44704;SDS011;30431;48.520;9.046;2023-09-07T22:28:00;9.98;;;7.55;;
44704;SDS011;30431;48.520;9.046;2023-09-07T22:30:29;10.88;;;7.20;;
44704;SDS011;30431;48.520;9.046;2023-09-07T22:32:57;9.27;;;7.40;;
44704;SDS011;30431;48.520;9.046;2023-09-07T22:35:24;10.20;;;7.47;;
44704;SDS011;30431;48.520;9.046;2023-09-07T22:37:56;13.20;;;8.52;;
44704;SDS011;30431;48.520;9.046;2023-09-07T22:40:23;11.80;;;7.18;;
44704;SDS011;30431;48.520;9.046;2023-09-07T22:42:53;14.30;;;7.68;;
44704;SDS011;30431;48.520;9.046;2023-09-07T22:45:21;9.13;;;7.72;;
44704;SDS011;30431;48.520;9.046;2023-09-07T22:47:48;9.90;;;7.75;;
44704;SDS011;30431;48.520;9.046;2023-09-07T22:50:15;12.38;;;7.93;;
44704;SDS011;30431;48.520;9.046;2023-09-07T22:52:42;10.93;;;8.00;;
44704;SDS011;30431;48.520;9.046;2023-09-07T22:55:14;11.55;;;7.80;;
44704;SDS011;30431;48.520;9.046;2023-09-07T22:58:01;8.35;;;7.40;;
44704;SDS011;30431;48.520;9.046;2023-09-07T23:00:28;10.32;;;7.97;;
44704;SDS011;30431;48.520;9.046;2023-09-07T23:02:56;8.57;;;7.40;;
44704;SDS011;30431;48.520;9.046;2023-09-07T23:05:23;9.00;;;7.47;;
44704;SDS011;30431;48.520;9.046;2023-09-07T23:07:51;9.85;;;7.72;;
44704;SDS011;30431;48.520;9.046;2023-09-07T23:10:20;9.32;;;6.78;;
44704;SDS011;30431;48.520;9.046;2023-09-07T23:12:47;7.97;;;6.80;;
44704;SDS011;30431;48.520;9.046;2023-09-07T23:15:15;8.75;;;6.65;;
44704;SDS011;30431;48.520;9.046;2023-09-07T23:17:44;9.52;;;6.65;;
44704;SDS011;30431;48.520;9.046;2023-09-07T23:20:12;9.35;;;6.50;;
44704;SDS011;30431;48.520;9.046;2023-09-07T23:22:41;8.52;;;6.13;;
44704;SDS011;30431;48.520;9.046;2023-09-07T23:25:14;9.50;;;6.60;;
44704;SDS011;30431;48.520;9.046;2023-09-07T23:27:41;13.30;;;7.43;;
44704;SDS011;30431;48.520;9.046;2023-09-07T23:30:08;10.38;;;7.20;;
44704;SDS011;30431;48.520;9.046;2023-09-07T23:32:39;10.00;;;7.20;;
44704;SDS011;30431;48.520;9.046;2023-09-07T23:35:08;8.82;;;7.05;;
44704;SDS011;30431;48.520;9.046;2023-09-07T23:37:38;10.80;;;7.97;;
44704;SDS011;30431;48.520;9.046;2023-09-07T23:40:07;8.68;;;7.75;;
44704;SDS011;30431;48.520;9.046;2023-09-07T23:42:36;11.02;;;7.90;;
44704;SDS011;30431;48.520;9.046;2023-09-07T23:45:03;10.80;;;8.35;;
44704;SDS011;30431;48.520;9.046;2023-09-07T23:47:35;13.00;;;8.40;;
44704;SDS011;30431;48.520;9.046;2023-09-07T23:50:04;10.82;;;8.00;;
44704;SDS011;30431;48.520;9.046;2023-09-07T23:52:32;11.02;;;7.68;;
44704;SDS011;30431;48.520;9.046;2023-09-07T23:55:02;9.07;;;6.95;;
44704;SDS011;30431;48.520;9.046;2023-09-07T23:57:30;9.45;;;7.47;;
44704;SDS011;30431;48.520;9.046;2023-09-07T23:59:57;11.50;;;7.25;;
